Time;durP1;ratioP1;P1;durP2;ratioP2;P2;SDS_P1;SDS_P2;PMS_P1;PMS_P2;Temp;Humidity;BMP_temperature;BMP_pressure;BME280_temperature;BME280_humidity;BME280_pressure;Samples;Min_cycle;Max_cycle;Signal;HPM_P1;HPM_P2
2023/08/08 00:01:57;;;;;;;;;2.00;2.00;;;;;-146.67;100.00;57155.34;6362902;22;10355;-75
2023/08/08 00:04:22;;;;;;;;;2.00;1.00;;;;;-146.67;100.00;57155.34;6362012;22;8808;-75
2023/08/08 00:06:47;;;;;;;;;3.00;2.00;;;;;-146.67;100.00;57155.34;6386692;22;8753;-75
2023/08/08 00:09:13;;;;;;;;;3.25;1.00;;;;;-146.67;100.00;57155.34;6361492;22;8767;-75
2023/08/08 00:11:38;;;;;;;;;3.00;2.00;;;;;-146.67;100.00;57155.34;6361790;22;8761;-75
2023/08/08 00:14:04;;;;;;;;;3.75;3.75;;;;;-146.67;100.00;57155.34;6362104;22;8818;-75
2023/08/08 00:16:29;;;;;;;;;2.00;2.00;;;;;-146.67;100.00;57155.34;6361624;22;8828;-75
2023/08/08 00:18:55;;;;;;;;;1.25;1.25;;;;;-146.67;100.00;57155.34;6362394;22;8748;-75
2023/08/08 00:21:20;;;;;;;;;1.00;1.00;;;;;-146.67;100.00;57155.34;6359099;22;10026;-75
2023/08/08 00:23:46;;;;;;;;;1.00;1.00;;;;;-146.67;100.00;57155.34;6361619;22;9484;-75
2023/08/08 00:26:11;;;;;;;;;2.75;1.25;;;;;-146.67;100.00;57155.34;6361653;22;8745;-75
2023/08/08 00:28:37;;;;;;;;;3.75;1.00;;;;;-146.67;100.00;57155.34;6360491;22;8840;-75
2023/08/08 00:31:03;;;;;;;;;2.00;1.00;;;;;-146.67;100.00;57155.34;6386605;22;10852;-75
2023/08/08 00:33:28;;;;;;;;;1.75;1.75;;;;;-146.67;100.00;57155.34;6360994;22;8768;-75
2023/08/08 00:35:53;;;;;;;;;2.50;1.00;;;;;-146.67;100.00;57155.34;6360586;22;8741;-75
2023/08/08 00:38:19;;;;;;;;;1.00;1.00;;;;;-146.67;100.00;57155.34;6357627;22;8765;-75
2023/08/08 00:40:45;;;;;;;;;4.00;3.00;;;;;-146.67;100.00;57155.34;6361287;22;8959;-75
2023/08/08 00:43:10;;;;;;;;;1.00;1.00;;;;;-146.67;100.00;57155.34;6360949;22;8760;-75
2023/08/08 00:45:36;;;;;;;;;1.00;1.00;;;;;-146.67;100.00;57155.34;6359992;22;10009;-75
2023/08/08 00:48:02;;;;;;;;;2.00;2.00;;;;;-146.67;100.00;57155.34;6362115;22;8710;-75
2023/08/08 00:50:27;;;;;;;;;1.50;1.50;;;;;-146.67;100.00;57155.34;6385264;22;10391;-75
2023/08/08 00:52:54;;;;;;;;;2.00;1.00;;;;;-146.67;100.00;57155.34;6361955;22;8763;-75
2023/08/08 00:55:19;;;;;;;;;1.00;1.00;;;;;-146.67;100.00;57155.34;6385747;22;8678;-75
2023/08/08 00:57:46;;;;;;;;;3.75;1.00;;;;;-146.67;100.00;57155.34;6386408;22;9836;-75
2023/08/08 01:00:12;;;;;;;;;1.50;1.25;;;;;-146.67;100.00;57155.34;6361723;22;8729;-75
2023/08/08 01:02:38;;;;;;;;;3.50;2.00;;;;;-146.67;100.00;57155.34;6361128;22;10413;-75
2023/08/08 01:05:04;;;;;;;;;2.00;2.00;;;;;-146.67;100.00;57155.34;6360272;22;8674;-75
2023/08/08 01:07:43;;;;;;;;;3.25;2.00;;;;;-146.67;100.00;57155.34;6359449;22;9929;-75
2023/08/08 01:10:15;;;;;;;;;1.00;1.00;;;;;-146.67;100.00;57155.34;6385438;22;10024;-75
2023/08/08 01:12:45;;;;;;;;;2.00;2.00;;;;;-146.67;100.00;57155.34;6360049;22;9938;-75
2023/08/08 01:15:12;;;;;;;;;1.50;1.00;;;;;-146.67;100.00;57155.34;6361827;22;9924;-75
2023/08/08 01:17:39;;;;;;;;;2.00;2.00;;;;;-146.67;100.00;57155.34;6361364;22;9630;-75
2023/08/08 01:20:05;;;;;;;;;3.00;1.50;;;;;-146.67;100.00;57155.34;6361236;22;9953;-75
2023/08/08 01:22:57;;;;;;;;;3.50;2.00;;;;;-146.67;100.00;57155.34;6358979;22;10045;-75
2023/08/08 01:25:23;;;;;;;;;2.00;2.00;;;;;-146.67;100.00;57155.34;6268874;22;9732;-75
2023/08/08 01:27:49;;;;;;;;;2.25;2.00;;;;;-146.67;100.00;57155.34;6296371;22;10137;-74
2023/08/08 01:30:14;;;;;;;;;1.00;1.00;;;;;-146.67;100.00;57155.34;6297623;22;8846;-75
2023/08/08 01:32:40;;;;;;;;;1.00;1.00;;;;;-146.67;100.00;57155.34;6297675;22;8833;-75
2023/08/08 01:35:06;;;;;;;;;2.75;1.00;;;;;-146.67;100.00;57155.34;6297568;22;8763;-73
2023/08/08 01:37:55;;;;;;;;;1.50;1.50;;;;;-146.67;100.00;57155.34;6296226;22;8722;-73
2023/08/08 01:40:21;;;;;;;;;2.75;1.75;;;;;-146.67;100.00;57155.34;6296892;22;9913;-73
2023/08/08 01:42:48;;;;;;;;;1.50;1.50;;;;;-146.67;100.00;57155.34;6269806;22;9868;-73
2023/08/08 01:45:15;;;;;;;;;1.75;1.75;;;;;-146.67;100.00;57155.34;6297450;22;9780;-73
2023/08/08 01:47:41;;;;;;;;;2.00;2.00;;;;;-146.67;100.00;57155.34;6270783;22;9849;-73
2023/08/08 01:50:07;;;;;;;;;3.00;2.00;;;;;-146.67;100.00;57155.34;6296478;22;10191;-73
2023/08/08 01:52:33;;;;;;;;;3.00;3.00;;;;;-146.67;100.00;57155.34;6296207;22;8732;-73
2023/08/08 01:54:58;;;;;;;;;1.00;1.00;;;;;-146.67;100.00;57155.34;6296935;22;10041;-72
2023/08/08 01:57:23;;;;;;;;;2.00;2.00;;;;;-146.67;100.00;57155.34;6270585;22;8823;-73
2023/08/08 01:59:49;;;;;;;;;1.00;1.00;;;;;-146.67;100.00;57155.34;6296824;22;8781;-73
2023/08/08 02:02:17;;;;;;;;;1.50;1.00;;;;;-146.67;100.00;57155.34;6315779;22;8921;-72
2023/08/08 02:04:42;;;;;;;;;2.25;0.00;;;;;-146.67;100.00;57155.34;6362843;22;11349;-73
2023/08/08 02:07:07;;;;;;;;;2.00;2.00;;;;;-146.67;100.00;57155.34;6362461;22;9865;-73
2023/08/08 02:09:33;;;;;;;;;2.50;1.75;;;;;-146.67;100.00;57155.34;6362202;22;8780;-73
2023/08/08 02:11:58;;;;;;;;;1.50;1.00;;;;;-146.67;100.00;57155.34;6360440;22;8761;-73
2023/08/08 02:14:23;;;;;;;;;5.00;1.75;;;;;-146.67;100.00;57155.34;6387060;22;8826;-73
2023/08/08 02:16:49;;;;;;;;;1.00;1.00;;;;;-146.67;100.00;57155.34;6386783;22;8745;-72
2023/08/08 02:19:15;;;;;;;;;3.00;2.00;;;;;-146.67;100.00;57155.34;6361628;22;9720;-73
2023/08/08 02:21:40;;;;;;;;;1.00;1.00;;;;;-146.67;100.00;57155.34;6385661;22;8745;-73
2023/08/08 02:24:05;;;;;;;;;1.25;1.25;;;;;-146.67;100.00;57155.34;6360073;22;8737;-72
2023/08/08 02:26:31;;;;;;;;;0.75;0.75;;;;;-146.67;100.00;57155.34;6360693;22;8787;-73
2023/08/08 02:28:56;;;;;;;;;2.50;1.50;;;;;-146.67;100.00;57155.34;6362326;22;8733;-73
2023/08/08 02:31:22;;;;;;;;;0.75;0.00;;;;;-146.67;100.00;57155.34;6362747;22;8780;-73
2023/08/08 02:33:50;;;;;;;;;2.00;2.00;;;;;-146.67;100.00;57155.34;6362084;22;8745;-75
2023/08/08 02:36:15;;;;;;;;;1.00;1.00;;;;;-146.67;100.00;57155.34;6360505;22;8717;-75
2023/08/08 02:38:40;;;;;;;;;2.00;1.75;;;;;-146.67;100.00;57155.34;6359111;22;9972;-75
2023/08/08 02:41:06;;;;;;;;;1.00;1.00;;;;;-146.67;100.00;57155.34;6358623;22;8741;-75
2023/08/08 02:43:32;;;;;;;;;1.00;1.00;;;;;-146.67;100.00;57155.34;6361233;22;8835;-75
2023/08/08 02:45:57;;;;;;;;;2.00;1.25;;;;;-146.67;100.00;57155.34;6360843;22;8666;-75
2023/08/08 02:48:22;;;;;;;;;3.50;3.00;;;;;-146.67;100.00;57155.34;6386948;22;9773;-75
2023/08/08 02:50:48;;;;;;;;;1.00;1.00;;;;;-146.67;100.00;57155.34;6361237;22;8764;-75
2023/08/08 02:53:13;;;;;;;;;2.25;1.50;;;;;-146.67;100.00;57155.34;6361771;22;8725;-75
2023/08/08 02:55:39;;;;;;;;;1.00;1.00;;;;;-146.67;100.00;57155.34;6362848;22;8764;-74
2023/08/08 02:58:04;;;;;;;;;1.00;1.00;;;;;-146.67;100.00;57155.34;6360147;22;9884;-75
2023/08/08 03:00:29;;;;;;;;;2.75;1.75;;;;;-146.67;100.00;57155.34;6362735;22;8733;-75
2023/08/08 03:02:55;;;;;;;;;2.00;2.00;;;;;-146.67;100.00;57155.34;6386784;22;8812;-75
2023/08/08 03:05:20;;;;;;;;;1.00;1.00;;;;;-146.67;100.00;57155.34;6362436;22;8795;-75
2023/08/08 03:07:45;;;;;;;;;0.50;0.50;;;;;-146.67;100.00;57155.34;6360102;22;9978;-75
2023/08/08 03:10:11;;;;;;;;;1.00;1.00;;;;;-146.67;100.00;57155.34;6362669;22;8764;-75
2023/08/08 03:12:38;;;;;;;;;1.00;1.00;;;;;-146.67;100.00;57155.34;6360860;22;8756;-75
2023/08/08 03:15:04;;;;;;;;;3.75;2.25;;;;;-146.67;100.00;57155.34;6362249;22;8733;-75
2023/08/08 03:17:29;;;;;;;;;2.00;2.00;;;;;-146.67;100.00;57155.34;6362374;22;10221;-75
2023/08/08 03:19:55;;;;;;;;;1.00;1.00;;;;;-146.67;100.00;57155.34;6361295;22;10065;-76
2023/08/08 03:22:20;;;;;;;;;1.75;1.75;;;;;-146.67;100.00;57155.34;6360075;22;8803;-75
2023/08/08 03:24:45;;;;;;;;;1.00;1.00;;;;;-146.67;100.00;57155.34;6360205;22;8751;-75
2023/08/08 03:27:11;;;;;;;;;2.00;2.00;;;;;-146.67;100.00;57155.34;6362148;22;9458;-75
2023/08/08 03:29:36;;;;;;;;;1.00;1.00;;;;;-146.67;100.00;57155.34;6362593;22;8779;-75
2023/08/08 03:32:03;;;;;;;;;2.25;2.25;;;;;-146.67;100.00;57155.34;6362232;22;8721;-75
2023/08/08 03:34:29;;;;;;;;;5.00;2.00;;;;;-146.67;100.00;57155.34;6386355;22;8721;-75
2023/08/08 03:36:55;;;;;;;;;1.50;1.50;;;;;-146.67;100.00;57155.34;6362675;22;10066;-75
2023/08/08 03:39:20;;;;;;;;;2.75;1.75;;;;;-146.67;100.00;57155.34;6362186;22;8806;-75
2023/08/08 03:41:46;;;;;;;;;1.00;1.00;;;;;-146.67;100.00;57155.34;6360355;22;9376;-75
2023/08/08 03:44:12;;;;;;;;;1.00;1.00;;;;;-146.67;100.00;57155.34;6362547;22;8669;-74
2023/08/08 03:46:37;;;;;;;;;2.00;2.00;;;;;-146.67;100.00;57155.34;6387063;22;9771;-75
2023/08/08 03:49:03;;;;;;;;;3.00;1.25;;;;;-146.67;100.00;57155.34;6362014;22;8737;-75
2023/08/08 03:51:28;;;;;;;;;3.00;1.50;;;;;-146.67;100.00;57155.34;6386105;22;8747;-74
2023/08/08 03:53:54;;;;;;;;;1.25;1.25;;;;;-146.67;100.00;57155.34;6361831;22;8725;-75
2023/08/08 03:56:19;;;;;;;;;3.00;2.00;;;;;-146.67;100.00;57155.34;6360101;22;10144;-74
2023/08/08 03:58:45;;;;;;;;;1.00;1.00;;;;;-146.67;100.00;57155.34;6362344;22;8753;-75
2023/08/08 04:01:10;;;;;;;;;1.00;1.00;;;;;-146.67;100.00;57155.34;6361909;22;8828;-75
2023/08/08 04:03:37;;;;;;;;;2.00;2.00;;;;;-146.67;100.00;57155.34;6361602;22;9472;-74
2023/08/08 04:06:02;;;;;;;;;2.75;1.00;;;;;-146.67;100.00;57155.34;6360777;22;9948;-75
2023/08/08 04:08:28;;;;;;;;;1.00;1.00;;;;;-146.67;100.00;57155.34;6362174;22;10042;-75
2023/08/08 04:10:54;;;;;;;;;2.00;2.00;;;;;-146.67;100.00;57155.34;6362643;22;8866;-75
2023/08/08 04:13:19;;;;;;;;;3.25;1.75;;;;;-146.67;100.00;57155.34;6361976;22;8752;-75
2023/08/08 04:15:45;;;;;;;;;2.75;2.75;;;;;-146.67;100.00;57155.34;6360330;22;11072;-75
2023/08/08 04:18:10;;;;;;;;;1.00;1.00;;;;;-146.67;100.00;57155.34;6361924;22;8729;-75
2023/08/08 04:20:36;;;;;;;;;1.25;1.25;;;;;-146.67;100.00;57155.34;6359790;22;8773;-75
2023/08/08 04:23:01;;;;;;;;;3.75;1.00;;;;;-146.67;100.00;57155.34;6359573;22;8760;-75
2023/08/08 04:25:27;;;;;;;;;3.25;3.00;;;;;-146.67;100.00;57155.34;6360145;22;9786;-75
2023/08/08 04:27:53;;;;;;;;;3.00;1.50;;;;;-146.67;100.00;57155.34;6362746;22;8669;-75
2023/08/08 04:30:18;;;;;;;;;2.00;1.50;;;;;-146.67;100.00;57155.34;6386797;22;11365;-75
2023/08/08 04:32:44;;;;;;;;;2.00;2.00;;;;;-146.67;100.00;57155.34;6361960;22;8749;-75
2023/08/08 04:35:09;;;;;;;;;2.00;1.50;;;;;-146.67;100.00;57155.34;6362012;22;8741;-75
2023/08/08 04:37:34;;;;;;;;;2.00;1.00;;;;;-146.67;100.00;57155.34;6361421;22;8899;-75
2023/08/08 04:40:01;;;;;;;;;1.00;1.00;;;;;-146.67;100.00;57155.34;6361717;22;8745;-75
2023/08/08 04:42:26;;;;;;;;;3.00;2.25;;;;;-146.67;100.00;57155.34;6361581;22;8720;-75
2023/08/08 04:44:52;;;;;;;;;2.50;2.50;;;;;-146.67;100.00;57155.34;6361781;22;10123;-75
2023/08/08 04:47:17;;;;;;;;;2.00;2.00;;;;;-146.67;100.00;57155.34;6361281;22;8817;-75
2023/08/08 04:49:43;;;;;;;;;1.75;1.50;;;;;-146.67;100.00;57155.34;6361275;22;9652;-75
2023/08/08 04:52:08;;;;;;;;;4.00;3.00;;;;;-146.67;100.00;57155.34;6359581;22;11463;-75
2023/08/08 04:54:34;;;;;;;;;2.00;2.00;;;;;-146.67;100.00;57155.34;6360855;22;8755;-75
2023/08/08 04:56:59;;;;;;;;;3.00;2.00;;;;;-146.67;100.00;57155.34;6361887;22;8762;-75
2023/08/08 04:59:24;;;;;;;;;1.00;1.00;;;;;-146.67;100.00;57155.34;6361844;22;8745;-75
2023/08/08 05:01:50;;;;;;;;;2.75;1.75;;;;;-146.67;100.00;57155.34;6361655;22;9513;-76
2023/08/08 05:04:15;;;;;;;;;2.00;2.00;;;;;-146.67;100.00;57155.34;6363234;22;8737;-74
2023/08/08 05:06:40;;;;;;;;;1.00;1.00;;;;;-146.67;100.00;57155.34;6387346;22;8761;-75
2023/08/08 05:09:09;;;;;;;;;6.00;2.00;;;;;-146.67;100.00;57155.34;6363211;22;8729;-75
2023/08/08 05:11:34;;;;;;;;;2.00;2.00;;;;;-146.67;100.00;57155.34;6360765;22;8674;-75
2023/08/08 05:14:00;;;;;;;;;1.00;1.00;;;;;-146.67;100.00;57155.34;6361080;22;10024;-75
2023/08/08 05:16:25;;;;;;;;;1.00;1.00;;;;;-146.67;100.00;57155.34;6386739;22;8776;-74
2023/08/08 05:18:51;;;;;;;;;1.00;1.00;;;;;-146.67;100.00;57155.34;6361058;22;8776;-75
2023/08/08 05:21:16;;;;;;;;;1.00;1.00;;;;;-146.67;100.00;57155.34;6386441;22;8829;-75
2023/08/08 05:23:41;;;;;;;;;3.00;1.00;;;;;-146.67;100.00;57155.34;6360095;22;9925;-75
2023/08/08 05:26:07;;;;;;;;;3.50;1.00;;;;;-146.67;100.00;57155.34;6361784;22;8741;-76
2023/08/08 05:28:32;;;;;;;;;0.00;0.00;;;;;-146.67;100.00;57155.34;6362105;22;9570;-76
2023/08/08 05:30:59;;;;;;;;;2.75;2.75;;;;;-146.67;100.00;57155.34;6359604;22;8728;-76
2023/08/08 05:33:24;;;;;;;;;0.00;0.00;;;;;-146.67;100.00;57155.34;6362247;22;8669;-76
2023/08/08 05:35:49;;;;;;;;;1.00;1.00;;;;;-146.67;100.00;57155.34;6359824;22;9531;-76
2023/08/08 05:38:15;;;;;;;;;0.50;0.50;;;;;-146.67;100.00;57155.34;6359685;22;9467;-76
2023/08/08 05:40:41;;;;;;;;;3.00;0.50;;;;;-146.67;100.00;57155.34;6361948;22;8785;-76
2023/08/08 05:43:08;;;;;;;;;2.75;1.00;;;;;-146.67;100.00;57155.34;6359840;22;9876;-76
2023/08/08 05:45:33;;;;;;;;;0.00;0.00;;;;;-146.67;100.00;57155.34;6361550;22;9510;-76
2023/08/08 05:48:00;;;;;;;;;1.25;1.25;;;;;-146.67;100.00;57155.34;6361974;22;9912;-76
2023/08/08 05:50:27;;;;;;;;;4.50;2.00;;;;;-146.67;100.00;57155.34;6360808;22;8713;-76
2023/08/08 05:52:52;;;;;;;;;6.00;3.00;;;;;-146.67;100.00;57155.34;6358754;22;9943;-76
2023/08/08 05:55:21;;;;;;;;;2.25;2.00;;;;;-146.67;100.00;57155.34;6359535;22;9847;-76
2023/08/08 05:57:47;;;;;;;;;2.00;2.00;;;;;-146.67;100.00;57155.34;6359149;22;8885;-76
2023/08/08 06:00:22;;;;;;;;;2.00;1.00;;;;;-146.67;100.00;57155.34;6385660;22;9591;-76
2023/08/08 06:02:50;;;;;;;;;2.00;2.00;;;;;-146.67;100.00;57155.34;6359276;22;9909;-76
2023/08/08 06:05:17;;;;;;;;;0.75;0.75;;;;;-146.67;100.00;57155.34;6361543;22;9789;-76
2023/08/08 06:07:43;;;;;;;;;1.00;1.00;;;;;-146.67;100.00;57155.34;6359711;22;9491;-76
2023/08/08 06:10:10;;;;;;;;;3.75;2.75;;;;;-146.67;100.00;57155.34;6362173;22;9773;-76
2023/08/08 06:12:35;;;;;;;;;2.00;2.00;;;;;-146.67;100.00;57155.34;6362076;22;8725;-76
2023/08/08 06:15:01;;;;;;;;;3.00;3.00;;;;;-146.67;100.00;57155.34;6360945;22;9795;-76
2023/08/08 06:17:26;;;;;;;;;3.25;2.25;;;;;-146.67;100.00;57155.34;6362105;22;8740;-76
2023/08/08 06:19:53;;;;;;;;;2.75;2.25;;;;;-146.67;100.00;57155.34;6361165;22;8717;-76
2023/08/08 06:22:19;;;;;;;;;3.50;2.50;;;;;-146.67;100.00;57155.34;6359069;22;9921;-76
2023/08/08 06:24:44;;;;;;;;;2.25;2.00;;;;;-146.67;100.00;57155.34;6385788;22;9834;-76
2023/08/08 06:27:10;;;;;;;;;3.75;2.00;;;;;-146.67;100.00;57155.34;6361948;22;8737;-76
2023/08/08 06:29:35;;;;;;;;;1.25;1.25;;;;;-146.67;100.00;57155.34;6361656;22;8745;-76
2023/08/08 06:32:00;;;;;;;;;2.00;1.50;;;;;-146.67;100.00;57155.34;6359672;22;10119;-76
2023/08/08 06:34:26;;;;;;;;;1.75;1.75;;;;;-146.67;100.00;57155.34;6361739;22;9503;-76
2023/08/08 06:36:51;;;;;;;;;1.00;1.00;;;;;-146.67;100.00;57155.34;6361832;22;8729;-76
2023/08/08 06:39:21;;;;;;;;;1.75;1.75;;;;;-146.67;100.00;57155.34;6361796;22;8733;-77
2023/08/08 06:41:46;;;;;;;;;2.00;0.33;;;;;-146.67;100.00;57155.34;6360981;22;8721;-75
2023/08/08 06:44:11;;;;;;;;;2.00;2.00;;;;;-146.67;100.00;57155.34;6360606;22;9406;-75
2023/08/08 06:46:37;;;;;;;;;2.00;1.00;;;;;-146.67;100.00;57155.34;6361368;22;8832;-74
2023/08/08 06:49:02;;;;;;;;;6.25;1.00;;;;;-146.67;100.00;57155.34;6385002;22;8752;-75
2023/08/08 06:51:28;;;;;;;;;2.50;0.75;;;;;-146.67;100.00;57155.34;6384890;22;9811;-74
2023/08/08 06:53:53;;;;;;;;;2.75;2.00;;;;;-146.67;100.00;57155.34;6360751;22;8753;-75
2023/08/08 06:56:19;;;;;;;;;3.25;1.50;;;;;-146.67;100.00;57155.34;6358911;22;8827;-74
2023/08/08 06:58:44;;;;;;;;;1.00;1.00;;;;;-146.67;100.00;57155.34;6360129;22;8737;-75
2023/08/08 07:01:09;;;;;;;;;0.75;0.75;;;;;-146.67;100.00;57155.34;6362153;22;9493;-75
2023/08/08 07:03:36;;;;;;;;;1.00;1.00;;;;;-146.67;100.00;57155.34;6362771;22;8773;-74
2023/08/08 07:06:02;;;;;;;;;2.00;2.00;;;;;-146.67;100.00;57155.34;6361045;22;9701;-75
2023/08/08 07:08:27;;;;;;;;;2.00;2.00;;;;;-146.67;100.00;57155.34;6358497;22;10773;-74
2023/08/08 07:10:54;;;;;;;;;1.00;1.00;;;;;-146.67;100.00;57155.34;6362151;22;9880;-75
2023/08/08 07:13:20;;;;;;;;;1.00;0.00;;;;;-146.67;100.00;57155.34;6361904;22;9845;-75
2023/08/08 07:15:45;;;;;;;;;1.00;1.00;;;;;-146.67;100.00;57155.34;6362431;22;8759;-75
2023/08/08 07:18:10;;;;;;;;;1.75;0.00;;;;;-146.67;100.00;57155.34;6387292;22;8806;-76
2023/08/08 07:20:36;;;;;;;;;1.75;1.00;;;;;-146.67;100.00;57155.34;6362133;22;8752;-75
2023/08/08 07:23:01;;;;;;;;;2.00;2.00;;;;;-146.67;100.00;57155.34;6359536;22;8780;-75
2023/08/08 07:25:27;;;;;;;;;2.75;1.75;;;;;-146.67;100.00;57155.34;6361765;22;8753;-76
2023/08/08 07:27:52;;;;;;;;;2.00;2.00;;;;;-146.67;100.00;57155.34;6361725;22;8733;-76
2023/08/08 07:30:18;;;;;;;;;1.75;1.00;;;;;-146.67;100.00;57155.34;6362890;22;8729;-76
2023/08/08 07:32:43;;;;;;;;;4.00;2.75;;;;;-146.67;100.00;57155.34;6362961;22;8815;-76
2023/08/08 07:35:09;;;;;;;;;1.50;0.25;;;;;-146.67;100.00;57155.34;6387300;22;8765;-76
2023/08/08 07:37:35;;;;;;;;;2.00;1.00;;;;;-146.67;100.00;57155.34;6360847;22;8818;-76
2023/08/08 07:40:01;;;;;;;;;1.50;1.00;;;;;-146.67;100.00;57155.34;6362063;22;8670;-76
2023/08/08 07:42:26;;;;;;;;;0.00;0.00;;;;;-146.67;100.00;57155.34;6362581;22;9517;-76
2023/08/08 07:44:52;;;;;;;;;0.67;0.67;;;;;-146.67;100.00;57155.34;6387542;22;8795;-75
2023/08/08 07:47:17;;;;;;;;;0.50;0.50;;;;;-146.67;100.00;57155.34;6362830;22;8728;-76
2023/08/08 07:49:42;;;;;;;;;1.25;0.75;;;;;-146.67;100.00;57155.34;6362209;22;8851;-76
2023/08/08 07:52:08;;;;;;;;;0.00;0.00;;;;;-146.67;100.00;57155.34;6387128;22;9192;-75
2023/08/08 07:54:34;;;;;;;;;0.75;0.75;;;;;-146.67;100.00;57155.34;6362001;22;8752;-76
2023/08/08 07:57:00;;;;;;;;;3.00;1.00;;;;;-146.67;100.00;57155.34;6387055;22;8733;-76
2023/08/08 07:59:25;;;;;;;;;2.75;2.75;;;;;-146.67;100.00;57155.34;6387021;22;10053;-76
2023/08/08 08:01:50;;;;;;;;;4.67;1.00;;;;;-146.67;100.00;57155.34;6362891;22;8752;-76
2023/08/08 08:04:16;;;;;;;;;0.00;0.00;;;;;-146.67;100.00;57155.34;6362387;22;8725;-76
2023/08/08 08:06:41;;;;;;;;;1.00;1.00;;;;;-146.67;100.00;57155.34;6363319;22;8764;-76
2023/08/08 08:09:06;;;;;;;;;0.25;0.25;;;;;-146.67;100.00;57155.34;6361901;22;8737;-76
2023/08/08 08:11:33;;;;;;;;;2.00;1.00;;;;;-146.67;100.00;57155.34;6360711;22;9704;-76
2023/08/08 08:13:58;;;;;;;;;0.00;0.00;;;;;-146.67;100.00;57155.34;6386829;22;9669;-75
2023/08/08 08:16:24;;;;;;;;;0.00;0.00;;;;;-146.67;100.00;57155.34;6362623;22;8755;-76
2023/08/08 08:18:49;;;;;;;;;1.00;0.00;;;;;-146.67;100.00;57155.34;6362975;22;8749;-75
2023/08/08 08:21:17;;;;;;;;;1.00;1.00;;;;;-146.67;100.00;57155.34;6361422;22;9200;-75
2023/08/08 08:23:42;;;;;;;;;1.00;1.00;;;;;-146.67;100.00;57155.34;6361207;22;8749;-76
2023/08/08 08:26:08;;;;;;;;;0.25;0.25;;;;;-146.67;100.00;57155.34;6362414;22;9426;-76
2023/08/08 08:28:33;;;;;;;;;1.25;1.00;;;;;-146.67;100.00;57155.34;6362308;22;8843;-76
2023/08/08 08:31:04;;;;;;;;;3.00;1.00;;;;;-146.67;100.00;57155.34;6362202;22;8930;-76
2023/08/08 08:33:29;;;;;;;;;1.00;1.00;;;;;-146.67;100.00;57155.34;6362447;22;9578;-78
2023/08/08 08:35:55;;;;;;;;;1.00;1.00;;;;;-146.67;100.00;57155.34;6360707;22;9426;-77
2023/08/08 08:38:20;;;;;;;;;1.00;1.00;;;;;-146.67;100.00;57155.34;6360970;22;8740;-77
2023/08/08 08:40:48;;;;;;;;;1.00;1.00;;;;;-146.67;100.00;57155.34;6361601;22;8741;-77
2023/08/08 08:43:15;;;;;;;;;6.50;1.00;;;;;-146.67;100.00;57155.34;6362128;22;8841;-77
2023/08/08 08:45:43;;;;;;;;;1.00;1.00;;;;;-146.67;100.00;57155.34;6361609;22;9585;-77
2023/08/08 08:48:12;;;;;;;;;1.50;1.50;;;;;-146.67;100.00;57155.34;6387090;22;9912;-77
2023/08/08 08:50:39;;;;;;;;;0.33;0.33;;;;;-146.67;100.00;57155.34;6360961;22;9458;-77
2023/08/08 08:53:05;;;;;;;;;0.00;0.00;;;;;-146.67;100.00;57155.34;6362175;22;9419;-77
2023/08/08 08:55:31;;;;;;;;;2.00;0.50;;;;;-146.67;100.00;57155.34;6362461;22;9406;-77
2023/08/08 08:57:56;;;;;;;;;0.00;0.00;;;;;-146.67;100.00;57155.34;6362538;22;9645;-76
2023/08/08 09:00:22;;;;;;;;;1.00;1.00;;;;;-146.67;100.00;57155.34;6362478;22;8749;-77
2023/08/08 09:02:48;;;;;;;;;1.00;0.00;;;;;-146.67;100.00;57155.34;6362212;22;8767;-77
2023/08/08 09:05:17;;;;;;;;;0.00;0.00;;;;;-146.67;100.00;57155.34;6362726;22;8791;-78
2023/08/08 09:07:42;;;;;;;;;1.67;1.00;;;;;-146.67;100.00;57155.34;6360785;22;10448;-77
2023/08/08 09:10:08;;;;;;;;;0.00;0.00;;;;;-146.67;100.00;57155.34;6361373;22;9361;-77
2023/08/08 09:12:34;;;;;;;;;5.00;1.00;;;;;-146.67;100.00;57155.34;6360985;22;8753;-77
2023/08/08 09:15:01;;;;;;;;;1.33;0.00;;;;;-146.67;100.00;57155.34;6385575;22;8717;-77
2023/08/08 09:17:27;;;;;;;;;2.33;1.00;;;;;-146.67;100.00;57155.34;6361812;22;10448;-77
2023/08/08 09:19:55;;;;;;;;;0.00;0.00;;;;;-146.67;100.00;57155.34;6361044;22;9243;-77
2023/08/08 09:22:21;;;;;;;;;0.50;0.50;;;;;-146.67;100.00;57155.34;6360490;22;9706;-77
2023/08/08 09:24:46;;;;;;;;;1.00;1.00;;;;;-146.67;100.00;57155.34;6360588;22;9431;-77
2023/08/08 09:27:13;;;;;;;;;1.00;0.00;;;;;-146.67;100.00;57155.34;6361551;22;8744;-77
2023/08/08 09:29:41;;;;;;;;;1.00;0.00;;;;;-146.67;100.00;57155.34;6361218;22;8710;-76
2023/08/08 09:32:06;;;;;;;;;0.00;0.00;;;;;-146.67;100.00;57155.34;6361461;22;9109;-77
2023/08/08 09:34:33;;;;;;;;;2.00;2.00;;;;;-146.67;100.00;57155.34;6359290;22;9077;-76
2023/08/08 09:37:00;;;;;;;;;2.00;0.00;;;;;-146.67;100.00;57155.34;6358444;22;11388;-77
2023/08/08 09:39:26;;;;;;;;;1.33;0.00;;;;;-146.67;100.00;57155.34;6360912;22;9139;-77
2023/08/08 09:41:51;;;;;;;;;3.33;0.67;;;;;-146.67;100.00;57155.34;6361251;22;9204;-76
2023/08/08 09:44:17;;;;;;;;;1.67;1.00;;;;;-146.67;100.00;57155.34;6361395;22;9050;-77
2023/08/08 09:46:43;;;;;;;;;3.67;1.00;;;;;-146.67;100.00;57155.34;6361101;22;8739;-76
2023/08/08 09:49:10;;;;;;;;;0.00;0.00;;;;;-146.67;100.00;57155.34;6361718;22;8729;-77
2023/08/08 09:51:36;;;;;;;;;0.00;0.00;;;;;-146.67;100.00;57155.34;6359303;22;8733;-77
2023/08/08 09:54:06;;;;;;;;;2.00;0.00;;;;;-146.67;100.00;57155.34;6360322;22;9185;-76
2023/08/08 09:56:33;;;;;;;;;0.67;0.67;;;;;-146.67;100.00;57155.34;6362710;22;9206;-74
2023/08/08 09:59:00;;;;;;;;;0.00;0.00;;;;;-146.67;100.00;57155.34;6360497;22;9142;-74
2023/08/08 10:01:27;;;;;;;;;1.00;0.00;;;;;-146.67;100.00;57155.34;6360435;22;9030;-74
2023/08/08 10:03:52;;;;;;;;;0.00;0.00;;;;;-146.67;100.00;57155.34;6362103;22;9002;-74
2023/08/08 10:06:19;;;;;;;;;2.00;0.67;;;;;-146.67;100.00;57155.34;6361846;22;9355;-74
2023/08/08 10:08:45;;;;;;;;;1.00;0.00;;;;;-146.67;100.00;57155.34;6362380;22;8733;-75
2023/08/08 10:11:11;;;;;;;;;2.00;0.00;;;;;-146.67;100.00;57155.34;6360902;22;9091;-74
2023/08/08 10:13:37;;;;;;;;;0.00;0.00;;;;;-146.67;100.00;57155.34;6360601;22;9111;-74
2023/08/08 10:16:09;;;;;;;;;1.00;1.00;;;;;-146.67;100.00;57155.34;6360378;22;9800;-74
2023/08/08 10:18:35;;;;;;;;;0.33;0.33;;;;;-146.67;100.00;57155.34;6387503;22;8681;-74
2023/08/08 10:21:03;;;;;;;;;0.67;0.67;;;;;-146.67;100.00;57155.34;6358780;22;8854;-74
2023/08/08 10:23:36;;;;;;;;;0.33;0.33;;;;;-146.67;100.00;57155.34;6362381;22;8690;-75
2023/08/08 10:26:02;;;;;;;;;1.00;1.00;;;;;-146.67;100.00;57155.34;6362582;22;9208;-75
2023/08/08 10:28:27;;;;;;;;;5.00;5.00;;;;;-146.67;100.00;57155.34;6362381;22;9127;-74
2023/08/08 10:30:56;;;;;;;;;1.00;1.00;;;;;-146.67;100.00;57155.34;6362096;22;8760;-75
2023/08/08 10:33:27;;;;;;;;;0.33;0.33;;;;;-146.67;100.00;57155.34;6360795;22;8839;-75
2023/08/08 10:36:03;;;;;;;;;1.67;0.00;;;;;-146.67;100.00;57155.34;6360187;22;9876;-74
2023/08/08 10:38:39;;;;;;;;;1.67;0.33;;;;;-146.67;100.00;57155.34;6359795;22;9118;-74
2023/08/08 10:41:08;;;;;;;;;1.67;0.33;;;;;-146.67;100.00;57155.34;6386666;22;9230;-75
2023/08/08 10:43:33;;;;;;;;;0.00;0.00;;;;;-146.67;100.00;57155.34;6362060;22;9075;-74
2023/08/08 10:46:01;;;;;;;;;0.00;0.00;;;;;-146.67;100.00;57155.34;6362001;22;9133;-74
2023/08/08 10:48:27;;;;;;;;;1.00;1.00;;;;;-146.67;100.00;57155.34;6361867;22;8803;-74
2023/08/08 10:50:58;;;;;;;;;3.67;2.00;;;;;-146.67;100.00;57155.34;6361925;22;9046;-72
2023/08/08 10:53:28;;;;;;;;;2.00;1.00;;;;;-146.67;100.00;57155.34;6386895;22;8892;-72
2023/08/08 10:56:04;;;;;;;;;0.33;0.00;;;;;-146.67;100.00;57155.34;6362766;22;9076;-73
2023/08/08 10:58:38;;;;;;;;;1.00;0.67;;;;;-146.67;100.00;57155.34;6362167;22;8779;-72
2023/08/08 11:01:08;;;;;;;;;0.00;0.00;;;;;-146.67;100.00;57155.34;6360786;22;8886;-72
2023/08/08 11:03:39;;;;;;;;;1.67;0.00;;;;;-146.67;100.00;57155.34;6361331;22;8785;-74
2023/08/08 11:06:09;;;;;;;;;0.25;0.25;;;;;-146.67;100.00;57155.34;6357750;22;10139;-74
2023/08/08 11:08:36;;;;;;;;;0.25;0.25;;;;;-146.67;100.00;57155.34;6358356;22;8689;-74
2023/08/08 11:11:02;;;;;;;;;1.00;1.00;;;;;-146.67;100.00;57155.34;6386635;22;8809;-77
2023/08/08 11:13:27;;;;;;;;;0.67;0.67;;;;;-146.67;100.00;57155.34;6359643;22;8745;-75